Cat Spring, Texas
Current Conditions -  °F | °C
As of 1:35 PM on Friday 28 Nov 2014 (Local Time) from KELA Reporting Station
Overcast Overcast  
Wind Chill: 72°   Ceiling: 4700
Heat Index: 72°   Visibility: 10mi
Dew Point: 56°   Wind: 14mph
Humidity: 58%   Direction: 180°S
Pressure: 30.2"   Gusts: 20mph
Location:  29.85°N, 96.33°W
Report Text: KELA 281935Z AUTO 18012G17KT 10SM SCT036 OVC047 22/14 A3020 RMK AO2 T02200135
Loading
Personal Weather Stations






























Interactive Weather Map New forecast layout! Learn more

10-Day Weather Forecast

Advertisements
Track Severe Weather on mobile